Time;durP1;ratioP1;P1;durP2;ratioP2;P2;SDS_P1;SDS_P2;PMS_P1;PMS_P2;Temp;Humidity;BMP_temperature;BMP_pressure;BME280_temperature;BME280_humidity;BME280_pressure;Samples;Min_cycle;Max_cycle;Signal;HPM_P1;HPM_P2
2023/01/31 00:00:52;;;;;;;;;;;2.20;99.90;;;;;;5077544;28;19908;-71
2023/01/31 00:03:18;;;;;;;;;;;2.20;99.90;;;;;;5069248;28;20219;-81
2023/01/31 00:05:44;;;;;;;;;;;2.20;99.90;;;;;;5074169;28;19908;-70
2023/01/31 00:08:09;;;;;;;;;;;2.20;99.90;;;;;;5073063;28;19920;-77
2023/01/31 00:10:35;;;;;;;;;;;2.20;99.90;;;;;;5073338;28;19927;-68
2023/01/31 00:13:00;;;;;;;;;;;2.20;99.90;;;;;;5069810;28;19905;-67
2023/01/31 00:15:26;;;;;;;;;;;2.20;99.90;;;;;;5053811;28;19916;-80
2023/01/31 00:17:51;;;;;;;;;;;2.20;99.90;;;;;;5076528;28;19919;-68
2023/01/31 00:20:17;;;;;;;;;;;2.20;99.90;;;;;;5076377;28;20318;-81
2023/01/31 00:22:43;;;;;;;;;;;2.20;99.90;;;;;;5072078;28;19935;-79
2023/01/31 00:25:08;;;;;;;;;;;2.20;99.90;;;;;;5077069;28;19908;-68
2023/01/31 00:27:34;;;;;;;;;;;2.20;99.90;;;;;;5075339;28;19915;-82
2023/01/31 00:29:59;;;;;;;;;;;2.20;99.90;;;;;;5075040;28;19919;-70
2023/01/31 00:32:25;;;;;;;;;;;2.20;99.90;;;;;;5075790;28;19912;-68
2023/01/31 00:34:52;;;;;;;;;;;2.10;99.90;;;;;;5074249;28;20027;-81
2023/01/31 00:37:18;;;;;;;;;;;2.10;99.90;;;;;;5047849;28;19920;-81
2023/01/31 00:39:43;;;;;;;;;;;2.10;99.90;;;;;;5076456;28;19912;-80
2023/01/31 00:42:09;;;;;;;;;;;2.10;99.90;;;;;;5076336;28;19904;-80
2023/01/31 00:44:34;;;;;;;;;;;2.10;99.90;;;;;;5042901;28;19922;-81
2023/01/31 00:47:00;;;;;;;;;;;2.10;99.90;;;;;;5076380;28;19908;-82
2023/01/31 00:49:25;;;;;;;;;;;2.10;99.90;;;;;;5058399;28;19928;-68
2023/01/31 00:51:51;;;;;;;;;;;2.20;99.90;;;;;;5062653;28;19913;-81
2023/01/31 00:54:17;;;;;;;;;;;2.10;99.90;;;;;;5064365;28;20006;-80
2023/01/31 00:56:43;;;;;;;;;;;2.10;99.90;;;;;;5067052;28;19922;-74
2023/01/31 00:59:09;;;;;;;;;;;2.10;99.90;;;;;;5066482;28;19913;-68
2023/01/31 01:01:35;;;;;;;;;;;2.10;99.90;;;;;;5074805;28;20245;-70
2023/01/31 01:04:01;;;;;;;;;;;2.00;99.90;;;;;;5047867;28;19912;-68
2023/01/31 01:06:27;;;;;;;;;;;2.00;99.90;;;;;;5074960;28;19995;-73
2023/01/31 01:08:53;;;;;;;;;;;2.00;99.90;;;;;;5071475;28;19916;-71
2023/01/31 01:11:23;;;;;;;;;;;1.90;99.90;;;;;;5075827;28;20322;-72
2023/01/31 01:13:50;;;;;;;;;;;1.90;99.90;;;;;;5071911;28;19908;-82
2023/01/31 01:16:18;;;;;;;;;;;1.80;99.90;;;;;;5069877;28;19916;-70
2023/01/31 01:18:46;;;;;;;;;;;1.90;99.90;;;;;;5075574;28;19912;-81
2023/01/31 01:21:17;;;;;;;;;;;1.80;99.90;;;;;;5062669;28;19909;-70
2023/01/31 01:23:42;;;;;;;;;;;1.90;99.90;;;;;;5073623;28;20444;-67
2023/01/31 01:26:18;;;;;;;;;;;1.90;99.90;;;;;;5071161;28;19908;-77
2023/01/31 01:28:44;;;;;;;;;;;1.90;99.90;;;;;;5072737;28;20215;-81
2023/01/31 01:31:11;;;;;;;;;;;1.90;99.90;;;;;;5075140;28;19908;-67
2023/01/31 01:33:36;;;;;;;;;;;1.90;99.90;;;;;;5073722;28;19916;-69
2023/01/31 01:36:03;;;;;;;;;;;1.90;99.90;;;;;;5071488;28;19909;-68
2023/01/31 01:38:28;;;;;;;;;;;2.00;99.90;;;;;;5071783;28;19943;-68
2023/01/31 01:40:54;;;;;;;;;;;2.00;99.90;;;;;;5073520;28;19951;-68
2023/01/31 01:43:20;;;;;;;;;;;2.10;99.90;;;;;;5070303;28;20110;-67
2023/01/31 01:45:45;;;;;;;;;;;2.20;99.90;;;;;;5070087;28;20120;-71
2023/01/31 01:48:12;;;;;;;;;;;2.20;99.90;;;;;;5071714;28;19912;-81
2023/01/31 01:50:43;;;;;;;;;;;2.30;99.90;;;;;;5071572;28;19966;-67
2023/01/31 01:53:17;;;;;;;;;;;2.40;99.90;;;;;;5066419;28;19958;-68
2023/01/31 01:55:54;;;;;;;;;;;2.50;99.90;;;;;;5066405;28;20290;-70
2023/01/31 01:58:22;;;;;;;;;;;2.60;99.90;;;;;;5071777;28;19908;-82
2023/01/31 02:00:48;;;;;;;;;;;2.70;99.90;;;;;;5065856;28;19917;-80
2023/01/31 02:03:14;;;;;;;;;;;2.70;99.90;;;;;;5073520;28;19998;-74
2023/01/31 02:05:40;;;;;;;;;;;2.80;99.90;;;;;;5071497;28;20422;-82
2023/01/31 02:08:06;;;;;;;;;;;2.80;99.90;;;;;;5066634;28;19923;-82
2023/01/31 02:10:53;;;;;;;;;;;2.90;99.90;;;;;;5072418;28;19923;-72
2023/01/31 02:13:19;;;;;;;;;;;3.00;99.90;;;;;;5066819;28;19946;-81
2023/01/31 02:15:45;;;;;;;;;;;3.00;99.90;;;;;;5072839;28;19909;-77
2023/01/31 02:18:11;;;;;;;;;;;3.00;99.90;;;;;;5074126;28;19908;-80
2023/01/31 02:20:42;;;;;;;;;;;3.00;99.90;;;;;;5072571;28;19919;-69
2023/01/31 02:23:23;;;;;;;;;;;3.10;99.90;;;;;;5070614;28;19908;-70
2023/01/31 02:26:07;;;;;;;;;;;3.10;99.90;;;;;;5065050;28;20050;-72
2023/01/31 02:28:32;;;;;;;;;;;3.10;99.90;;;;;;5071200;28;20310;-83
2023/01/31 02:31:11;;;;;;;;;;;3.20;99.90;;;;;;5067880;28;19904;-72
2023/01/31 02:33:43;;;;;;;;;;;3.20;99.90;;;;;;5073405;28;20266;-68
2023/01/31 02:36:27;;;;;;;;;;;3.20;99.90;;;;;;5073139;28;20260;-76
2023/01/31 02:39:10;;;;;;;;;;;3.20;99.90;;;;;;5064339;28;19904;-74
2023/01/31 02:41:42;;;;;;;;;;;3.20;99.90;;;;;;5071052;28;19908;-80
2023/01/31 02:47:24;;;;;;;;;;;3.30;99.90;;;;;;5067445;28;19970;-77
2023/01/31 02:49:49;;;;;;;;;;;3.30;99.90;;;;;;5060259;28;19996;-67
2023/01/31 02:52:19;;;;;;;;;;;3.30;99.90;;;;;;5069747;28;20030;-80
2023/01/31 02:57:34;;;;;;;;;;;3.30;99.90;;;;;;5073670;28;19912;-71
2023/01/31 03:00:00;;;;;;;;;;;3.40;99.90;;;;;;5066286;28;19909;-72
2023/01/31 03:02:26;;;;;;;;;;;3.40;99.90;;;;;;5064721;28;19909;-68
2023/01/31 03:04:52;;;;;;;;;;;3.50;99.90;;;;;;5070470;28;19908;-80
2023/01/31 03:07:25;;;;;;;;;;;3.50;99.90;;;;;;5044818;28;19944;-69
2023/01/31 03:10:01;;;;;;;;;;;3.50;99.90;;;;;;5070561;28;19924;-83
2023/01/31 03:12:28;;;;;;;;;;;3.60;99.90;;;;;;5054500;28;19920;-68
2023/01/31 03:14:56;;;;;;;;;;;3.60;99.90;;;;;;5072843;28;19908;-68
2023/01/31 03:17:30;;;;;;;;;;;3.60;99.90;;;;;;5071971;28;19963;-68
2023/01/31 03:20:02;;;;;;;;;;;3.60;99.90;;;;;;5073551;28;19995;-72
2023/01/31 03:22:30;;;;;;;;;;;3.70;99.90;;;;;;5072195;28;19999;-71
2023/01/31 03:24:57;;;;;;;;;;;3.70;99.90;;;;;;5072089;28;19959;-67
2023/01/31 03:27:23;;;;;;;;;;;3.70;99.90;;;;;;5074117;28;19962;-68
2023/01/31 03:29:49;;;;;;;;;;;3.80;99.90;;;;;;5070641;28;19916;-68
2023/01/31 03:32:36;;;;;;;;;;;3.80;99.90;;;;;;5072732;28;20210;-71
2023/01/31 03:35:01;;;;;;;;;;;3.90;99.90;;;;;;5075828;28;19967;-75
2023/01/31 03:37:35;;;;;;;;;;;3.90;99.90;;;;;;5074634;28;19936;-74
2023/01/31 03:40:04;;;;;;;;;;;3.90;99.90;;;;;;5076249;28;19908;-73
2023/01/31 03:42:39;;;;;;;;;;;3.90;99.90;;;;;;5066040;28;19908;-71
2023/01/31 03:45:04;;;;;;;;;;;3.90;99.90;;;;;;5075507;28;19908;-71
2023/01/31 03:47:34;;;;;;;;;;;4.00;99.90;;;;;;5073496;28;20266;-72
2023/01/31 03:50:02;;;;;;;;;;;3.90;99.90;;;;;;5055830;28;19966;-83
2023/01/31 03:52:34;;;;;;;;;;;4.00;99.90;;;;;;5075962;28;19909;-68
2023/01/31 03:55:06;;;;;;;;;;;4.00;99.90;;;;;;5073043;28;19912;-82
2023/01/31 03:57:33;;;;;;;;;;;3.90;99.90;;;;;;5071019;28;19908;-82
2023/01/31 04:00:00;;;;;;;;;;;3.90;99.90;;;;;;5072230;28;20038;-68
2023/01/31 04:02:32;;;;;;;;;;;3.90;99.90;;;;;;5074008;28;20268;-82
2023/01/31 04:04:59;;;;;;;;;;;3.80;99.90;;;;;;5056025;28;19969;-78
2023/01/31 04:07:25;;;;;;;;;;;3.90;99.90;;;;;;5057716;28;19909;-81
2023/01/31 04:09:51;;;;;;;;;;;3.90;99.90;;;;;;5073600;28;20463;-71
2023/01/31 04:12:16;;;;;;;;;;;3.90;99.90;;;;;;5075720;28;19916;-73
2023/01/31 04:14:42;;;;;;;;;;;4.00;99.90;;;;;;5076057;28;20319;-71
2023/01/31 04:17:08;;;;;;;;;;;4.10;99.90;;;;;;5062112;28;19916;-80
2023/01/31 04:19:33;;;;;;;;;;;4.10;99.90;;;;;;5071414;28;20223;-72
2023/01/31 04:21:59;;;;;;;;;;;4.20;99.90;;;;;;5076073;28;19908;-77
2023/01/31 04:24:24;;;;;;;;;;;4.20;99.90;;;;;;5073708;28;19914;-68
2023/01/31 04:26:50;;;;;;;;;;;4.30;99.90;;;;;;5074314;28;19916;-70
2023/01/31 04:29:16;;;;;;;;;;;4.40;99.90;;;;;;5076196;28;19916;-69
2023/01/31 04:31:41;;;;;;;;;;;4.40;99.90;;;;;;5073323;28;19999;-69
2023/01/31 04:34:07;;;;;;;;;;;4.40;99.90;;;;;;5071521;28;19959;-68
2023/01/31 04:36:32;;;;;;;;;;;4.40;99.90;;;;;;5074103;28;20311;-68
2023/01/31 04:38:59;;;;;;;;;;;4.40;99.90;;;;;;5076097;28;20211;-75
2023/01/31 04:41:26;;;;;;;;;;;4.50;99.90;;;;;;5073544;28;19912;-71
2023/01/31 04:43:51;;;;;;;;;;;4.50;99.90;;;;;;5075651;28;19912;-77
2023/01/31 04:46:17;;;;;;;;;;;4.50;99.90;;;;;;5067240;28;20204;-74
2023/01/31 04:48:43;;;;;;;;;;;4.60;99.90;;;;;;5044773;28;19944;-69
2023/01/31 04:51:08;;;;;;;;;;;4.60;99.90;;;;;;5050572;28;20275;-69
2023/01/31 04:53:34;;;;;;;;;;;4.60;99.90;;;;;;5072759;28;19970;-80
2023/01/31 04:56:00;;;;;;;;;;;4.60;99.90;;;;;;5069531;28;19908;-68
2023/01/31 04:58:26;;;;;;;;;;;4.70;99.90;;;;;;5061574;28;19908;-68
2023/01/31 05:00:52;;;;;;;;;;;4.70;99.90;;;;;;5076154;28;19978;-68
2023/01/31 05:03:18;;;;;;;;;;;4.80;99.90;;;;;;5071737;28;19908;-69
2023/01/31 05:05:46;;;;;;;;;;;4.80;99.90;;;;;;5072977;28;20314;-72
2023/01/31 05:08:11;;;;;;;;;;;4.80;99.90;;;;;;5061949;28;19916;-68
2023/01/31 05:10:37;;;;;;;;;;;4.90;99.90;;;;;;5074183;28;19939;-70
2023/01/31 05:13:03;;;;;;;;;;;4.90;99.90;;;;;;5071400;28;19920;-69
2023/01/31 05:15:28;;;;;;;;;;;4.90;99.90;;;;;;5074381;28;19912;-80
2023/01/31 05:18:01;;;;;;;;;;;5.00;99.90;;;;;;5075855;28;19916;-69
2023/01/31 05:20:30;;;;;;;;;;;4.90;99.90;;;;;;5074793;28;19912;-80
2023/01/31 05:22:57;;;;;;;;;;;4.90;99.90;;;;;;5053061;28;19966;-84
2023/01/31 05:25:23;;;;;;;;;;;4.90;99.90;;;;;;5058098;28;19912;-83
2023/01/31 05:27:49;;;;;;;;;;;4.90;99.90;;;;;;5065425;28;19932;-77
2023/01/31 05:30:14;;;;;;;;;;;4.90;99.90;;;;;;5065312;28;19951;-83
2023/01/31 05:32:40;;;;;;;;;;;5.00;99.90;;;;;;5039901;28;20321;-69
2023/01/31 05:35:06;;;;;;;;;;;4.90;99.90;;;;;;5071508;28;20357;-69
2023/01/31 05:37:31;;;;;;;;;;;5.00;99.90;;;;;;5070317;28;19913;-71
2023/01/31 05:39:57;;;;;;;;;;;5.00;99.90;;;;;;5069535;28;19908;-84
2023/01/31 05:42:22;;;;;;;;;;;5.00;99.90;;;;;;5071478;28;19909;-68
2023/01/31 05:44:48;;;;;;;;;;;5.00;99.90;;;;;;5070222;28;20188;-79
2023/01/31 05:47:13;;;;;;;;;;;5.00;99.90;;;;;;5068813;28;20352;-83
2023/01/31 05:49:39;;;;;;;;;;;5.00;99.90;;;;;;5072275;28;19920;-74
2023/01/31 05:52:05;;;;;;;;;;;5.10;99.90;;;;;;5060418;28;19912;-68
2023/01/31 05:54:30;;;;;;;;;;;5.10;99.90;;;;;;5070906;28;19915;-83
2023/01/31 05:56:56;;;;;;;;;;;5.10;99.90;;;;;;5070899;28;20227;-84
2023/01/31 05:59:21;;;;;;;;;;;5.20;99.90;;;;;;5073816;28;19927;-70
2023/01/31 06:01:47;;;;;;;;;;;5.20;99.90;;;;;;5056327;28;19915;-74
2023/01/31 06:04:13;;;;;;;;;;;5.20;99.90;;;;;;5073169;28;20290;-68
2023/01/31 06:06:38;;;;;;;;;;;5.20;99.90;;;;;;5075132;28;19909;-87
2023/01/31 06:09:04;;;;;;;;;;;5.20;99.90;;;;;;5066259;28;19916;-69
2023/01/31 06:11:29;;;;;;;;;;;5.30;99.90;;;;;;5056579;28;19908;-70
2023/01/31 06:13:56;;;;;;;;;;;5.20;99.90;;;;;;5067657;28;20039;-68
2023/01/31 06:16:22;;;;;;;;;;;5.30;99.90;;;;;;5073168;28;19916;-77
2023/01/31 06:18:56;;;;;;;;;;;5.30;99.90;;;;;;5067669;28;19966;-79
2023/01/31 06:21:22;;;;;;;;;;;5.30;99.90;;;;;;5051911;28;19955;-68
2023/01/31 06:23:47;;;;;;;;;;;5.30;99.90;;;;;;5067718;28;19993;-69
2023/01/31 06:26:13;;;;;;;;;;;5.30;99.90;;;;;;5070493;28;19957;-70
2023/01/31 06:28:42;;;;;;;;;;;5.30;99.90;;;;;;5060197;28;19916;-78
2023/01/31 06:31:08;;;;;;;;;;;5.40;99.90;;;;;;5072286;28;20003;-68
2023/01/31 06:33:34;;;;;;;;;;;5.40;99.90;;;;;;5047999;28;20293;-70
2023/01/31 06:35:59;;;;;;;;;;;5.50;99.90;;;;;;5066703;28;20000;-69
2023/01/31 06:38:25;;;;;;;;;;;5.50;99.90;;;;;;5065293;28;19948;-69
2023/01/31 06:40:51;;;;;;;;;;;5.50;99.90;;;;;;5070361;28;19958;-68
2023/01/31 06:43:16;;;;;;;;;;;5.60;99.90;;;;;;5061100;28;19924;-70
2023/01/31 06:45:43;;;;;;;;;;;5.60;99.90;;;;;;5065906;28;19908;-79
2023/01/31 06:48:09;;;;;;;;;;;5.70;99.90;;;;;;5073778;28;19908;-70
2023/01/31 06:50:35;;;;;;;;;;;5.70;99.90;;;;;;5063399;28;19956;-70
2023/01/31 06:53:00;;;;;;;;;;;5.70;99.90;;;;;;5073171;28;19955;-74
2023/01/31 06:55:26;;;;;;;;;;;5.80;99.90;;;;;;5068952;28;19916;-74
2023/01/31 06:57:51;;;;;;;;;;;5.80;99.90;;;;;;5074113;28;19958;-74
2023/01/31 07:00:17;;;;;;;;;;;5.80;99.90;;;;;;5073926;28;19919;-69
2023/01/31 07:02:43;;;;;;;;;;;5.80;99.90;;;;;;5065040;28;20299;-74
2023/01/31 07:05:09;;;;;;;;;;;5.90;99.90;;;;;;5073135;28;19908;-84
2023/01/31 07:07:34;;;;;;;;;;;5.90;99.90;;;;;;5068413;28;19954;-80
2023/01/31 07:10:00;;;;;;;;;;;5.90;99.90;;;;;;5070963;28;19942;-75
2023/01/31 07:12:25;;;;;;;;;;;5.90;99.90;;;;;;5067984;28;20306;-82
2023/01/31 07:14:51;;;;;;;;;;;6.00;99.90;;;;;;5063059;28;19924;-78
2023/01/31 07:17:17;;;;;;;;;;;6.00;99.90;;;;;;5051842;28;20291;-70
2023/01/31 07:19:42;;;;;;;;;;;6.00;99.90;;;;;;5068539;28;19940;-73
2023/01/31 07:22:08;;;;;;;;;;;6.00;99.90;;;;;;5069871;28;19924;-70
2023/01/31 07:24:33;;;;;;;;;;;6.00;99.90;;;;;;5056082;28;19958;-84
2023/01/31 07:27:00;;;;;;;;;;;6.00;99.90;;;;;;5072766;28;19956;-70
2023/01/31 07:29:25;;;;;;;;;;;6.00;99.90;;;;;;5070790;28;20009;-72
2023/01/31 07:31:53;;;;;;;;;;;6.00;99.90;;;;;;5072008;28;19958;-70
2023/01/31 07:34:20;;;;;;;;;;;6.00;99.90;;;;;;5072760;28;19909;-70
2023/01/31 07:36:45;;;;;;;;;;;5.90;99.90;;;;;;5073614;28;19908;-70
2023/01/31 07:39:12;;;;;;;;;;;5.90;99.90;;;;;;5072412;28;19919;-70
2023/01/31 07:41:37;;;;;;;;;;;5.90;99.90;;;;;;5071057;28;19908;-70
2023/01/31 07:44:04;;;;;;;;;;;5.90;99.90;;;;;;5055302;28;20365;-81
2023/01/31 07:46:29;;;;;;;;;;;5.90;99.90;;;;;;5067032;28;19909;-87
2023/01/31 07:48:55;;;;;;;;;;;5.90;99.90;;;;;;5067915;28;19947;-69
2023/01/31 07:51:20;;;;;;;;;;;5.80;99.90;;;;;;5071628;28;19927;-85
2023/01/31 07:53:46;;;;;;;;;;;5.80;99.90;;;;;;5067911;28;20257;-69
2023/01/31 07:56:13;;;;;;;;;;;5.80;99.90;;;;;;5069736;28;20365;-78
2023/01/31 07:58:40;;;;;;;;;;;5.80;99.90;;;;;;5036226;28;19917;-70
2023/01/31 08:03:50;;;;;;;;;;;5.80;99.90;;;;;;5068895;28;19979;-81
2023/01/31 08:06:16;;;;;;;;;;;5.70;99.90;;;;;;5075329;28;19963;-71
2023/01/31 08:08:41;;;;;;;;;;;5.70;99.90;;;;;;5056304;28;19923;-70
2023/01/31 08:11:07;;;;;;;;;;;5.80;99.90;;;;;;5066359;28;20245;-69
2023/01/31 08:13:34;;;;;;;;;;;5.80;99.90;;;;;;5071881;28;19916;-70
2023/01/31 08:16:00;;;;;;;;;;;5.80;99.90;;;;;;5075407;28;19951;-82
2023/01/31 08:18:25;;;;;;;;;;;5.80;99.90;;;;;;5069896;28;19997;-74
2023/01/31 08:20:51;;;;;;;;;;;5.90;99.90;;;;;;5073839;28;19912;-70
2023/01/31 08:23:16;;;;;;;;;;;5.90;99.90;;;;;;5068740;28;20257;-81
2023/01/31 08:25:42;;;;;;;;;;;5.90;99.90;;;;;;5065805;28;20380;-85
2023/01/31 08:28:07;;;;;;;;;;;5.90;99.90;;;;;;5073144;28;20249;-71
2023/01/31 08:30:33;;;;;;;;;;;5.90;99.90;;;;;;5069369;28;19927;-70
2023/01/31 08:32:59;;;;;;;;;;;5.90;99.90;;;;;;5072480;28;19915;-70
2023/01/31 08:35:25;;;;;;;;;;;6.00;99.90;;;;;;5074598;28;19954;-83
2023/01/31 08:37:51;;;;;;;;;;;6.00;99.90;;;;;;5070801;28;20326;-70
2023/01/31 08:40:16;;;;;;;;;;;6.00;99.90;;;;;;5076875;28;19917;-82
2023/01/31 08:42:42;;;;;;;;;;;6.10;99.90;;;;;;5076285;28;19908;-72
2023/01/31 08:45:07;;;;;;;;;;;6.10;99.90;;;;;;5076787;28;19908;-72
2023/01/31 08:47:33;;;;;;;;;;;6.10;99.90;;;;;;5070670;28;19912;-70
2023/01/31 08:49:59;;;;;;;;;;;6.10;99.90;;;;;;5067504;28;19917;-80
2023/01/31 08:52:24;;;;;;;;;;;6.20;99.90;;;;;;5069876;28;19908;-85
2023/01/31 08:54:50;;;;;;;;;;;6.20;99.90;;;;;;5071830;28;19908;-83
2023/01/31 08:57:15;;;;;;;;;;;6.20;99.90;;;;;;5068262;28;19959;-69
2023/01/31 08:59:41;;;;;;;;;;;6.30;99.90;;;;;;5070803;28;19919;-73
2023/01/31 09:02:08;;;;;;;;;;;6.30;99.90;;;;;;5056964;28;20269;-71
2023/01/31 09:04:34;;;;;;;;;;;6.30;99.90;;;;;;5071728;28;19919;-70
2023/01/31 09:06:59;;;;;;;;;;;6.30;99.90;;;;;;5068303;28;19909;-77
2023/01/31 09:09:25;;;;;;;;;;;6.40;99.90;;;;;;5071233;28;20310;-83
2023/01/31 09:11:51;;;;;;;;;;;6.50;99.90;;;;;;5070031;28;19923;-76
2023/01/31 09:14:16;;;;;;;;;;;6.50;99.90;;;;;;5073918;28;19912;-70
2023/01/31 09:16:42;;;;;;;;;;;6.60;99.90;;;;;;5068164;28;19914;-74
2023/01/31 09:19:07;;;;;;;;;;;6.60;99.90;;;;;;5074399;28;19928;-73
2023/01/31 09:21:33;;;;;;;;;;;6.70;99.90;;;;;;5066128;28;19912;-78
2023/01/31 09:24:01;;;;;;;;;;;6.80;99.90;;;;;;5070943;28;19919;-88
2023/01/31 09:26:27;;;;;;;;;;;6.80;99.90;;;;;;5069629;28;20103;-72
2023/01/31 09:28:52;;;;;;;;;;;6.80;99.90;;;;;;5067016;28;19915;-77
2023/01/31 09:31:19;;;;;;;;;;;6.90;99.90;;;;;;5065328;28;19908;-79
2023/01/31 09:33:45;;;;;;;;;;;6.90;99.90;;;;;;5046633;28;20129;-71
2023/01/31 09:36:18;;;;;;;;;;;6.90;99.90;;;;;;5064596;28;20319;-77
2023/01/31 09:38:44;;;;;;;;;;;6.90;99.90;;;;;;5068598;28;19912;-70
2023/01/31 09:41:16;;;;;;;;;;;7.00;99.90;;;;;;5071649;28;20199;-79
2023/01/31 09:43:44;;;;;;;;;;;7.00;99.90;;;;;;5074772;28;19954;-87
2023/01/31 09:46:13;;;;;;;;;;;7.00;99.90;;;;;;5072701;28;19938;-93
2023/01/31 09:48:41;;;;;;;;;;;7.10;99.90;;;;;;5069828;28;19966;-75
2023/01/31 09:51:09;;;;;;;;;;;7.10;99.90;;;;;;4997069;28;19920;-69
2023/01/31 09:53:36;;;;;;;;;;;7.20;99.90;;;;;;4973722;28;19920;-86
2023/01/31 09:56:08;;;;;;;;;;;7.20;99.90;;;;;;4973623;28;21239;-71
2023/01/31 09:58:36;;;;;;;;;;;7.20;99.90;;;;;;4982386;28;20007;-70
2023/01/31 10:01:12;;;;;;;;;;;7.20;99.90;;;;;;4983058;28;20389;-72
2023/01/31 10:03:38;;;;;;;;;;;7.20;99.90;;;;;;4977321;28;19912;-69
2023/01/31 10:06:03;;;;;;;;;;;7.20;99.90;;;;;;4978424;28;19966;-73
2023/01/31 10:08:29;;;;;;;;;;;7.20;99.90;;;;;;5036348;28;19919;-86
2023/01/31 10:10:57;;;;;;;;;;;7.30;99.90;;;;;;5071677;28;20311;-73
2023/01/31 10:13:28;;;;;;;;;;;7.30;99.90;;;;;;5068105;28;19909;-92
2023/01/31 10:16:00;;;;;;;;;;;7.30;99.90;;;;;;5057203;28;19916;-74
2023/01/31 10:18:28;;;;;;;;;;;7.30;99.90;;;;;;5028224;28;19916;-72
2023/01/31 10:20:57;;;;;;;;;;;7.30;99.90;;;;;;5073936;28;19909;-71
2023/01/31 10:23:22;;;;;;;;;;;7.40;99.90;;;;;;5075276;28;19943;-79
2023/01/31 10:25:54;;;;;;;;;;;7.40;99.90;;;;;;5054194;28;19952;-90
2023/01/31 10:28:33;;;;;;;;;;;7.40;99.90;;;;;;5072147;28;19915;-71
2023/01/31 10:31:02;;;;;;;;;;;7.50;99.90;;;;;;5068261;28;20226;-84
2023/01/31 10:33:34;;;;;;;;;;;7.60;99.90;;;;;;5068675;28;19931;-70
2023/01/31 10:36:02;;;;;;;;;;;7.60;99.90;;;;;;5073854;28;19934;-90
2023/01/31 10:38:51;;;;;;;;;;;7.70;99.90;;;;;;5058934;28;20008;-70
2023/01/31 10:41:21;;;;;;;;;;;7.70;99.90;;;;;;4967954;28;20024;-72
2023/01/31 10:43:59;;;;;;;;;;;7.70;99.90;;;;;;4963291;28;19912;-78
2023/01/31 10:46:24;;;;;;;;;;;7.60;99.90;;;;;;4983180;28;19928;-90
2023/01/31 10:48:50;;;;;;;;;;;7.60;99.90;;;;;;4984724;28;20803;-83
2023/01/31 10:51:19;;;;;;;;;;;7.70;99.90;;;;;;4984777;28;19913;-81
2023/01/31 10:53:54;;;;;;;;;;;7.60;99.90;;;;;;4986111;28;19912;-70
2023/01/31 10:56:29;;;;;;;;;;;7.70;99.90;;;;;;5031359;28;20262;-83
2023/01/31 10:58:56;;;;;;;;;;;7.70;99.90;;;;;;5071444;28;19966;-74
2023/01/31 11:01:21;;;;;;;;;;;7.70;99.90;;;;;;5065539;28;20349;-84
2023/01/31 11:03:49;;;;;;;;;;;7.70;99.90;;;;;;5066852;28;19913;-88
2023/01/31 11:06:15;;;;;;;;;;;7.80;99.90;;;;;;5073986;28;19913;-80
2023/01/31 11:08:40;;;;;;;;;;;7.80;99.90;;;;;;5062477;28;19981;-85
2023/01/31 11:11:10;;;;;;;;;;;7.80;99.90;;;;;;5054377;28;20344;-77
2023/01/31 11:13:36;;;;;;;;;;;7.80;99.90;;;;;;5064635;28;20367;-81
2023/01/31 11:16:05;;;;;;;;;;;7.80;99.90;;;;;;5055292;28;19904;-80
2023/01/31 11:18:31;;;;;;;;;;;7.80;99.90;;;;;;5066867;28;20259;-84
2023/01/31 11:20:58;;;;;;;;;;;7.80;99.90;;;;;;5069894;28;19909;-77
2023/01/31 11:23:25;;;;;;;;;;;7.90;99.90;;;;;;5059224;28;19908;-70
2023/01/31 11:25:52;;;;;;;;;;;7.90;99.90;;;;;;5046897;28;19962;-83
2023/01/31 11:28:27;;;;;;;;;;;7.90;99.90;;;;;;5066860;28;20310;-76
2023/01/31 11:30:53;;;;;;;;;;;8.00;99.90;;;;;;5068512;28;19913;-72
2023/01/31 11:33:38;;;;;;;;;;;7.90;99.90;;;;;;5056544;28;20240;-87
2023/01/31 11:36:07;;;;;;;;;;;8.00;99.90;;;;;;5047236;28;20784;-79
2023/01/31 11:38:33;;;;;;;;;;;7.90;99.90;;;;;;4976240;28;19919;-80
2023/01/31 11:40:58;;;;;;;;;;;8.10;99.90;;;;;;4972930;28;20684;-69
2023/01/31 11:43:25;;;;;;;;;;;8.10;99.90;;;;;;4969386;28;19912;-72
2023/01/31 11:45:55;;;;;;;;;;;8.10;99.90;;;;;;4958399;28;19950;-78
2023/01/31 11:48:26;;;;;;;;;;;8.10;99.90;;;;;;4975972;28;19912;-91
2023/01/31 11:50:55;;;;;;;;;;;8.20;99.90;;;;;;4955348;28;20828;-76
2023/01/31 11:53:22;;;;;;;;;;;8.20;99.90;;;;;;4974820;28;19919;-69
2023/01/31 11:55:49;;;;;;;;;;;8.20;99.90;;;;;;4976209;28;19923;-69
2023/01/31 11:58:15;;;;;;;;;;;8.30;99.90;;;;;;4966302;28;19913;-90
2023/01/31 12:00:47;;;;;;;;;;;8.40;99.90;;;;;;4972212;28;19920;-70
2023/01/31 12:03:14;;;;;;;;;;;8.40;99.90;;;;;;4958737;28;20448;-70
2023/01/31 12:05:42;;;;;;;;;;;8.40;99.90;;;;;;4965245;28;19912;-70
2023/01/31 12:08:26;;;;;;;;;;;8.40;99.90;;;;;;4958399;28;21351;-68
2023/01/31 12:10:52;;;;;;;;;;;8.50;99.90;;;;;;4965146;28;19928;-69
2023/01/31 12:13:18;;;;;;;;;;;8.60;99.90;;;;;;4964688;28;19919;-70
2023/01/31 12:15:58;;;;;;;;;;;8.60;99.90;;;;;;4965846;28;20007;-70
2023/01/31 12:18:39;;;;;;;;;;;8.70;99.90;;;;;;4971459;28;20379;-68
2023/01/31 12:21:15;;;;;;;;;;;8.70;99.90;;;;;;4960894;28;19912;-69
2023/01/31 12:23:59;;;;;;;;;;;8.70;99.90;;;;;;4963842;28;20269;-69
2023/01/31 12:26:42;;;;;;;;;;;8.80;99.90;;;;;;4963013;28;19966;-69
2023/01/31 12:29:27;;;;;;;;;;;8.80;99.90;;;;;;4956808;28;19928;-68
2023/01/31 12:32:11;;;;;;;;;;;8.80;99.90;;;;;;4959607;28;19914;-68
2023/01/31 12:34:42;;;;;;;;;;;9.00;99.90;;;;;;4962967;28;19912;-69
2023/01/31 12:37:08;;;;;;;;;;;9.10;99.90;;;;;;4963141;28;19912;-69
2023/01/31 12:39:33;;;;;;;;;;;9.10;99.90;;;;;;4961751;28;23212;-69
2023/01/31 12:42:29;;;;;;;;;;;9.20;99.90;;;;;;4964064;28;19913;-69
2023/01/31 12:44:54;;;;;;;;;;;9.30;99.90;;;;;;4931280;28;19919;-69
2023/01/31 12:47:32;;;;;;;;;;;9.30;99.90;;;;;;4958744;28;20796;-70
2023/01/31 12:49:57;;;;;;;;;;;9.30;99.90;;;;;;4962218;28;19975;-91
2023/01/31 12:52:35;;;;;;;;;;;9.30;99.90;;;;;;4957807;28;21684;-69
2023/01/31 12:55:16;;;;;;;;;;;9.30;99.90;;;;;;4957939;28;19916;-70
2023/01/31 12:57:54;;;;;;;;;;;9.30;99.90;;;;;;5005158;28;19919;-69
2023/01/31 13:00:31;;;;;;;;;;;9.30;99.90;;;;;;5057105;28;19908;-83
2023/01/31 13:02:57;;;;;;;;;;;9.40;99.90;;;;;;5042826;28;19908;-70
2023/01/31 13:05:31;;;;;;;;;;;9.40;99.90;;;;;;4969179;28;19923;-69
2023/01/31 13:08:01;;;;;;;;;;;9.50;99.90;;;;;;4962917;28;19963;-69
2023/01/31 13:10:29;;;;;;;;;;;9.50;99.90;;;;;;4960275;28;19928;-89
2023/01/31 13:12:57;;;;;;;;;;;9.40;99.90;;;;;;4959767;28;20222;-68
2023/01/31 13:15:27;;;;;;;;;;;9.50;99.90;;;;;;4961167;28;19913;-69
2023/01/31 13:17:56;;;;;;;;;;;9.40;99.90;;;;;;4961696;28;19912;-69
2023/01/31 13:20:25;;;;;;;;;;;9.40;99.90;;;;;;4963324;28;19913;-84
2023/01/31 13:22:52;;;;;;;;;;;9.30;99.90;;;;;;4964589;28;19916;-87
2023/01/31 13:25:27;;;;;;;;;;;9.30;99.90;;;;;;4961375;28;19920;-69
2023/01/31 13:28:28;;;;;;;;;;;9.30;99.90;;;;;;4959136;28;20200;-69
2023/01/31 13:31:04;;;;;;;;;;;9.30;99.90;;;;;;4884556;28;19929;-70
2023/01/31 13:33:29;;;;;;;;;;;9.30;99.90;;;;;;4873596;28;20232;-70
2023/01/31 13:36:02;;;;;;;;;;;9.20;99.90;;;;;;4867840;28;19933;-69
2023/01/31 13:38:32;;;;;;;;;;;9.20;99.90;;;;;;4870691;28;19969;-68
2023/01/31 13:40:59;;;;;;;;;;;9.20;99.90;;;;;;4868729;28;19913;-69
2023/01/31 13:43:24;;;;;;;;;;;9.20;99.90;;;;;;4867258;28;19933;-69
2023/01/31 13:45:55;;;;;;;;;;;9.30;99.90;;;;;;4870823;28;20002;-68
2023/01/31 13:48:41;;;;;;;;;;;9.40;99.90;;;;;;4869360;28;20064;-68
2023/01/31 13:51:16;;;;;;;;;;;9.40;99.90;;;;;;4870121;28;21152;-70
2023/01/31 13:53:48;;;;;;;;;;;9.40;99.90;;;;;;4870933;28;20012;-68
2023/01/31 13:56:19;;;;;;;;;;;9.40;99.90;;;;;;4868475;28;20279;-69
2023/01/31 13:58:47;;;;;;;;;;;9.50;99.90;;;;;;4865871;28;19920;-69
2023/01/31 14:01:23;;;;;;;;;;;9.50;99.90;;;;;;4869781;28;20063;-68
2023/01/31 14:04:07;;;;;;;;;;;9.50;99.90;;;;;;4869836;28;19914;-68
2023/01/31 14:06:51;;;;;;;;;;;9.50;99.90;;;;;;4964236;28;19944;-69
2023/01/31 14:09:23;;;;;;;;;;;9.40;99.90;;;;;;4963143;28;20011;-70
2023/01/31 14:11:49;;;;;;;;;;;9.50;99.90;;;;;;4964461;28;20508;-70
2023/01/31 14:14:19;;;;;;;;;;;9.50;99.90;;;;;;4962142;28;19919;-69
2023/01/31 14:16:46;;;;;;;;;;;9.50;99.90;;;;;;4961087;28;19912;-69
2023/01/31 14:19:18;;;;;;;;;;;9.50;99.90;;;;;;4962500;28;21196;-69
2023/01/31 14:21:50;;;;;;;;;;;9.40;99.90;;;;;;4961009;28;19938;-69
2023/01/31 14:24:35;;;;;;;;;;;9.40;99.90;;;;;;4961744;28;20605;-69
2023/01/31 14:27:02;;;;;;;;;;;9.40;99.90;;;;;;4961575;28;23254;-69
2023/01/31 14:29:27;;;;;;;;;;;9.30;99.90;;;;;;4960391;28;19966;-69
2023/01/31 14:31:55;;;;;;;;;;;9.40;99.90;;;;;;4961203;28;20223;-68
2023/01/31 14:34:25;;;;;;;;;;;9.40;99.90;;;;;;4962104;28;20194;-68
2023/01/31 14:37:00;;;;;;;;;;;9.40;99.90;;;;;;4962591;28;19912;-68
2023/01/31 14:39:29;;;;;;;;;;;9.50;99.90;;;;;;4965058;28;20565;-68
2023/01/31 14:42:09;;;;;;;;;;;9.50;99.90;;;;;;4962614;28;19982;-69
2023/01/31 14:44:50;;;;;;;;;;;9.60;99.90;;;;;;4963359;28;21182;-68
2023/01/31 14:47:28;;;;;;;;;;;9.40;99.90;;;;;;4959972;28;19913;-69